sensor_id;sensor_type;location;lat;lon;timestamp;P1;durP1;ratioP1;P2;durP2;ratioP2
52934;SDS011;38802;50.198;19.796;2023-08-07T00:00:57;2.90;;;1.50;;
52934;SDS011;38802;50.198;19.796;2023-08-07T00:03:33;4.80;;;1.70;;
52934;SDS011;38802;50.198;19.796;2023-08-07T00:06:02;2.40;;;1.20;;
52934;SDS011;38802;50.198;19.796;2023-08-07T00:08:30;2.00;;;1.50;;
52934;SDS011;38802;50.198;19.796;2023-08-07T00:11:05;1.70;;;1.60;;
52934;SDS011;38802;50.198;19.796;2023-08-07T00:13:36;1.50;;;1.40;;
52934;SDS011;38802;50.198;19.796;2023-08-07T00:16:04;1.80;;;1.70;;
52934;SDS011;38802;50.198;19.796;2023-08-07T00:18:32;1.70;;;1.60;;
52934;SDS011;38802;50.198;19.796;2023-08-07T00:21:01;1.50;;;1.40;;
52934;SDS011;38802;50.198;19.796;2023-08-07T00:23:28;1.50;;;1.40;;
52934;SDS011;38802;50.198;19.796;2023-08-07T00:25:57;1.60;;;1.50;;
52934;SDS011;38802;50.198;19.796;2023-08-07T00:28:29;1.40;;;1.30;;
52934;SDS011;38802;50.198;19.796;2023-08-07T00:30:57;2.30;;;1.40;;
52934;SDS011;38802;50.198;19.796;2023-08-07T00:33:26;2.00;;;1.80;;
52934;SDS011;38802;50.198;19.796;2023-08-07T00:35:54;3.20;;;1.60;;
52934;SDS011;38802;50.198;19.796;2023-08-07T00:38:22;3.40;;;1.70;;
52934;SDS011;38802;50.198;19.796;2023-08-07T00:40:50;1.90;;;1.80;;
52934;SDS011;38802;50.198;19.796;2023-08-07T00:43:18;2.10;;;1.90;;
52934;SDS011;38802;50.198;19.796;2023-08-07T00:45:46;2.70;;;2.00;;
52934;SDS011;38802;50.198;19.796;2023-08-07T00:48:15;5.70;;;2.80;;
52934;SDS011;38802;50.198;19.796;2023-08-07T00:50:44;2.90;;;2.70;;
52934;SDS011;38802;50.198;19.796;2023-08-07T00:53:14;3.50;;;2.70;;
52934;SDS011;38802;50.198;19.796;2023-08-07T00:55:42;5.50;;;3.30;;
52934;SDS011;38802;50.198;19.796;2023-08-07T00:58:11;3.80;;;3.50;;
52934;SDS011;38802;50.198;19.796;2023-08-07T01:00:39;3.60;;;2.90;;
52934;SDS011;38802;50.198;19.796;2023-08-07T01:03:10;3.30;;;3.00;;
52934;SDS011;38802;50.198;19.796;2023-08-07T01:05:41;3.90;;;3.60;;
52934;SDS011;38802;50.198;19.796;2023-08-07T01:08:09;4.50;;;3.60;;
52934;SDS011;38802;50.198;19.796;2023-08-07T01:13:29;3.30;;;3.10;;
52934;SDS011;38802;50.198;19.796;2023-08-07T01:16:03;4.30;;;3.10;;
52934;SDS011;38802;50.198;19.796;2023-08-07T01:18:39;4.20;;;3.80;;
52934;SDS011;38802;50.198;19.796;2023-08-07T01:21:16;5.20;;;3.70;;
52934;SDS011;38802;50.198;19.796;2023-08-07T01:23:46;3.80;;;3.50;;
52934;SDS011;38802;50.198;19.796;2023-08-07T01:26:17;3.50;;;3.30;;
52934;SDS011;38802;50.198;19.796;2023-08-07T01:28:54;4.10;;;3.80;;
52934;SDS011;38802;50.198;19.796;2023-08-07T01:31:45;4.30;;;4.00;;
52934;SDS011;38802;50.198;19.796;2023-08-07T01:34:18;4.80;;;4.00;;
52934;SDS011;38802;50.198;19.796;2023-08-07T01:36:50;5.10;;;4.30;;
52934;SDS011;38802;50.198;19.796;2023-08-07T01:39:20;3.70;;;3.40;;
52934;SDS011;38802;50.198;19.796;2023-08-07T01:41:50;4.00;;;3.60;;
52934;SDS011;38802;50.198;19.796;2023-08-07T01:44:19;4.00;;;3.70;;
52934;SDS011;38802;50.198;19.796;2023-08-07T01:46:47;4.10;;;3.80;;
52934;SDS011;38802;50.198;19.796;2023-08-07T01:49:15;4.70;;;4.30;;
52934;SDS011;38802;50.198;19.796;2023-08-07T01:51:43;4.60;;;4.20;;
52934;SDS011;38802;50.198;19.796;2023-08-07T01:54:11;4.60;;;4.00;;
52934;SDS011;38802;50.198;19.796;2023-08-07T01:56:39;5.10;;;3.50;;
52934;SDS011;38802;50.198;19.796;2023-08-07T01:59:07;3.40;;;3.10;;
52934;SDS011;38802;50.198;19.796;2023-08-07T02:01:35;4.30;;;3.70;;
52934;SDS011;38802;50.198;19.796;2023-08-07T02:04:04;4.30;;;3.90;;
52934;SDS011;38802;50.198;19.796;2023-08-07T02:06:32;5.20;;;3.70;;
52934;SDS011;38802;50.198;19.796;2023-08-07T02:09:01;4.30;;;3.90;;
52934;SDS011;38802;50.198;19.796;2023-08-07T02:11:29;4.70;;;4.30;;
52934;SDS011;38802;50.198;19.796;2023-08-07T02:13:57;4.50;;;4.10;;
52934;SDS011;38802;50.198;19.796;2023-08-07T02:16:25;4.60;;;4.20;;
52934;SDS011;38802;50.198;19.796;2023-08-07T02:18:53;5.00;;;4.60;;
52934;SDS011;38802;50.198;19.796;2023-08-07T02:21:21;5.20;;;4.80;;
52934;SDS011;38802;50.198;19.796;2023-08-07T02:23:49;5.20;;;4.80;;
52934;SDS011;38802;50.198;19.796;2023-08-07T02:26:17;5.20;;;4.70;;
52934;SDS011;38802;50.198;19.796;2023-08-07T02:28:46;6.60;;;4.60;;
52934;SDS011;38802;50.198;19.796;2023-08-07T02:31:14;5.00;;;4.60;;
52934;SDS011;38802;50.198;19.796;2023-08-07T02:33:42;4.50;;;4.20;;
52934;SDS011;38802;50.198;19.796;2023-08-07T02:36:10;4.30;;;4.00;;
52934;SDS011;38802;50.198;19.796;2023-08-07T02:38:38;5.50;;;5.10;;
52934;SDS011;38802;50.198;19.796;2023-08-07T02:41:06;5.20;;;4.80;;
52934;SDS011;38802;50.198;19.796;2023-08-07T02:43:35;6.00;;;5.50;;
52934;SDS011;38802;50.198;19.796;2023-08-07T02:46:04;5.20;;;4.80;;
52934;SDS011;38802;50.198;19.796;2023-08-07T02:48:32;5.10;;;4.70;;
52934;SDS011;38802;50.198;19.796;2023-08-07T02:51:00;5.60;;;5.00;;
52934;SDS011;38802;50.198;19.796;2023-08-07T02:53:28;6.50;;;5.10;;
52934;SDS011;38802;50.198;19.796;2023-08-07T02:55:56;6.90;;;5.20;;
52934;SDS011;38802;50.198;19.796;2023-08-07T02:58:24;6.00;;;5.50;;
52934;SDS011;38802;50.198;19.796;2023-08-07T03:00:52;7.00;;;6.40;;
52934;SDS011;38802;50.198;19.796;2023-08-07T03:03:20;8.70;;;5.80;;
52934;SDS011;38802;50.198;19.796;2023-08-07T03:05:49;7.10;;;6.50;;
52934;SDS011;38802;50.198;19.796;2023-08-07T03:08:18;6.20;;;5.80;;
52934;SDS011;38802;50.198;19.796;2023-08-07T03:10:50;6.50;;;5.90;;
52934;SDS011;38802;50.198;19.796;2023-08-07T03:13:20;9.80;;;7.00;;
52934;SDS011;38802;50.198;19.796;2023-08-07T03:15:48;7.50;;;6.90;;
52934;SDS011;38802;50.198;19.796;2023-08-07T03:18:17;7.40;;;6.80;;
52934;SDS011;38802;50.198;19.796;2023-08-07T03:20:46;7.40;;;6.00;;
52934;SDS011;38802;50.198;19.796;2023-08-07T03:23:14;7.30;;;6.20;;
52934;SDS011;38802;50.198;19.796;2023-08-07T03:25:42;7.40;;;5.90;;
52934;SDS011;38802;50.198;19.796;2023-08-07T03:28:10;7.10;;;6.30;;
52934;SDS011;38802;50.198;19.796;2023-08-07T03:30:38;8.30;;;6.40;;
52934;SDS011;38802;50.198;19.796;2023-08-07T03:33:07;10.80;;;6.00;;
52934;SDS011;38802;50.198;19.796;2023-08-07T03:35:36;6.70;;;6.10;;
52934;SDS011;38802;50.198;19.796;2023-08-07T03:38:04;5.80;;;5.40;;
52934;SDS011;38802;50.198;19.796;2023-08-07T03:40:33;6.40;;;5.90;;
52934;SDS011;38802;50.198;19.796;2023-08-07T03:43:02;6.50;;;6.00;;
52934;SDS011;38802;50.198;19.796;2023-08-07T03:45:31;5.60;;;5.20;;
52934;SDS011;38802;50.198;19.796;2023-08-07T03:47:59;8.10;;;5.10;;
52934;SDS011;38802;50.198;19.796;2023-08-07T03:50:27;6.40;;;5.60;;
52934;SDS011;38802;50.198;19.796;2023-08-07T03:52:55;5.30;;;4.90;;
52934;SDS011;38802;50.198;19.796;2023-08-07T03:55:24;5.40;;;5.00;;
52934;SDS011;38802;50.198;19.796;2023-08-07T03:57:53;5.70;;;4.90;;
52934;SDS011;38802;50.198;19.796;2023-08-07T04:00:21;6.40;;;5.70;;
52934;SDS011;38802;50.198;19.796;2023-08-07T04:02:50;5.30;;;4.80;;
52934;SDS011;38802;50.198;19.796;2023-08-07T04:05:18;4.80;;;4.50;;
52934;SDS011;38802;50.198;19.796;2023-08-07T04:07:46;4.80;;;4.40;;
52934;SDS011;38802;50.198;19.796;2023-08-07T04:10:14;4.10;;;3.80;;
52934;SDS011;38802;50.198;19.796;2023-08-07T04:12:42;5.00;;;4.60;;
52934;SDS011;38802;50.198;19.796;2023-08-07T04:15:11;4.90;;;4.50;;
52934;SDS011;38802;50.198;19.796;2023-08-07T04:17:39;5.10;;;4.70;;
52934;SDS011;38802;50.198;19.796;2023-08-07T04:20:07;4.90;;;4.30;;
52934;SDS011;38802;50.198;19.796;2023-08-07T04:22:36;6.50;;;4.10;;
52934;SDS011;38802;50.198;19.796;2023-08-07T04:25:04;4.10;;;3.80;;
52934;SDS011;38802;50.198;19.796;2023-08-07T04:27:32;5.20;;;3.90;;
52934;SDS011;38802;50.198;19.796;2023-08-07T04:30:00;7.10;;;4.10;;
52934;SDS011;38802;50.198;19.796;2023-08-07T04:32:28;3.30;;;3.10;;
52934;SDS011;38802;50.198;19.796;2023-08-07T04:34:56;3.20;;;3.00;;
52934;SDS011;38802;50.198;19.796;2023-08-07T04:37:24;3.00;;;2.80;;
52934;SDS011;38802;50.198;19.796;2023-08-07T04:39:52;2.50;;;2.30;;
52934;SDS011;38802;50.198;19.796;2023-08-07T04:42:22;2.90;;;2.60;;
52934;SDS011;38802;50.198;19.796;2023-08-07T04:44:50;2.80;;;2.60;;
52934;SDS011;38802;50.198;19.796;2023-08-07T04:47:18;2.50;;;2.30;;
52934;SDS011;38802;50.198;19.796;2023-08-07T04:49:46;3.70;;;2.70;;
52934;SDS011;38802;50.198;19.796;2023-08-07T04:52:15;2.70;;;2.40;;
52934;SDS011;38802;50.198;19.796;2023-08-07T04:54:53;2.50;;;2.30;;
52934;SDS011;38802;50.198;19.796;2023-08-07T04:57:21;3.20;;;2.10;;
52934;SDS011;38802;50.198;19.796;2023-08-07T04:59:49;2.50;;;2.00;;
52934;SDS011;38802;50.198;19.796;2023-08-07T05:02:18;3.00;;;2.00;;
52934;SDS011;38802;50.198;19.796;2023-08-07T05:04:47;2.60;;;2.40;;
52934;SDS011;38802;50.198;19.796;2023-08-07T05:07:15;2.40;;;2.20;;
52934;SDS011;38802;50.198;19.796;2023-08-07T05:09:43;4.30;;;2.00;;
52934;SDS011;38802;50.198;19.796;2023-08-07T05:12:11;4.40;;;2.00;;
52934;SDS011;38802;50.198;19.796;2023-08-07T05:14:39;2.60;;;2.00;;
52934;SDS011;38802;50.198;19.796;2023-08-07T05:17:07;2.80;;;1.80;;
52934;SDS011;38802;50.198;19.796;2023-08-07T05:19:35;3.30;;;1.60;;
52934;SDS011;38802;50.198;19.796;2023-08-07T05:22:03;2.50;;;2.20;;
52934;SDS011;38802;50.198;19.796;2023-08-07T05:24:31;3.20;;;1.80;;
52934;SDS011;38802;50.198;19.796;2023-08-07T05:27:10;2.50;;;2.30;;
52934;SDS011;38802;50.198;19.796;2023-08-07T05:29:39;3.20;;;2.00;;
52934;SDS011;38802;50.198;19.796;2023-08-07T05:32:13;2.90;;;1.90;;
52934;SDS011;38802;50.198;19.796;2023-08-07T05:34:43;5.90;;;1.90;;
52934;SDS011;38802;50.198;19.796;2023-08-07T05:37:11;2.30;;;1.60;;
52934;SDS011;38802;50.198;19.796;2023-08-07T05:39:39;1.80;;;1.70;;
52934;SDS011;38802;50.198;19.796;2023-08-07T05:42:07;3.10;;;1.60;;
52934;SDS011;38802;50.198;19.796;2023-08-07T05:44:37;1.60;;;1.50;;
52934;SDS011;38802;50.198;19.796;2023-08-07T05:47:05;1.50;;;1.40;;
52934;SDS011;38802;50.198;19.796;2023-08-07T05:49:34;3.00;;;1.20;;
52934;SDS011;38802;50.198;19.796;2023-08-07T05:52:02;2.40;;;1.20;;
52934;SDS011;38802;50.198;19.796;2023-08-07T05:54:30;2.60;;;1.20;;
52934;SDS011;38802;50.198;19.796;2023-08-07T05:56:58;2.60;;;1.20;;
52934;SDS011;38802;50.198;19.796;2023-08-07T05:59:26;2.80;;;1.40;;
52934;SDS011;38802;50.198;19.796;2023-08-07T06:01:54;1.20;;;1.10;;
52934;SDS011;38802;50.198;19.796;2023-08-07T06:04:26;1.60;;;1.10;;
52934;SDS011;38802;50.198;19.796;2023-08-07T06:06:54;2.60;;;1.60;;
52934;SDS011;38802;50.198;19.796;2023-08-07T06:09:24;2.30;;;1.00;;
52934;SDS011;38802;50.198;19.796;2023-08-07T06:11:53;2.70;;;1.00;;
52934;SDS011;38802;50.198;19.796;2023-08-07T06:14:21;5.20;;;1.80;;
52934;SDS011;38802;50.198;19.796;2023-08-07T06:16:50;1.00;;;0.90;;
52934;SDS011;38802;50.198;19.796;2023-08-07T06:19:19;3.00;;;0.70;;
52934;SDS011;38802;50.198;19.796;2023-08-07T06:21:59;0.80;;;0.80;;
52934;SDS011;38802;50.198;19.796;2023-08-07T06:24:28;1.40;;;0.80;;
52934;SDS011;38802;50.198;19.796;2023-08-07T06:26:56;2.50;;;0.70;;
52934;SDS011;38802;50.198;19.796;2023-08-07T06:29:24;0.90;;;0.70;;
52934;SDS011;38802;50.198;19.796;2023-08-07T06:31:52;1.50;;;0.60;;
52934;SDS011;38802;50.198;19.796;2023-08-07T06:34:20;3.10;;;0.60;;
52934;SDS011;38802;50.198;19.796;2023-08-07T06:36:49;2.00;;;0.60;;
52934;SDS011;38802;50.198;19.796;2023-08-07T06:39:17;0.50;;;0.50;;
52934;SDS011;38802;50.198;19.796;2023-08-07T06:41:45;1.50;;;0.60;;
52934;SDS011;38802;50.198;19.796;2023-08-07T06:44:14;0.60;;;0.60;;
52934;SDS011;38802;50.198;19.796;2023-08-07T06:46:42;1.10;;;0.60;;
52934;SDS011;38802;50.198;19.796;2023-08-07T06:49:10;0.50;;;0.50;;
52934;SDS011;38802;50.198;19.796;2023-08-07T06:51:38;2.20;;;0.40;;
52934;SDS011;38802;50.198;19.796;2023-08-07T06:54:06;2.70;;;0.60;;
52934;SDS011;38802;50.198;19.796;2023-08-07T06:56:34;0.80;;;0.80;;
52934;SDS011;38802;50.198;19.796;2023-08-07T06:59:02;0.70;;;0.50;;
52934;SDS011;38802;50.198;19.796;2023-08-07T07:01:30;1.20;;;0.40;;
52934;SDS011;38802;50.198;19.796;2023-08-07T07:03:59;2.80;;;0.70;;
52934;SDS011;38802;50.198;19.796;2023-08-07T07:06:28;1.30;;;0.70;;
52934;SDS011;38802;50.198;19.796;2023-08-07T07:08:56;0.70;;;0.70;;
52934;SDS011;38802;50.198;19.796;2023-08-07T07:11:24;0.90;;;0.70;;
52934;SDS011;38802;50.198;19.796;2023-08-07T07:13:52;0.60;;;0.60;;
52934;SDS011;38802;50.198;19.796;2023-08-07T07:16:20;1.60;;;0.90;;
52934;SDS011;38802;50.198;19.796;2023-08-07T07:18:50;1.80;;;1.00;;
52934;SDS011;38802;50.198;19.796;2023-08-07T07:21:19;1.10;;;0.90;;
52934;SDS011;38802;50.198;19.796;2023-08-07T07:23:48;0.90;;;0.90;;
52934;SDS011;38802;50.198;19.796;2023-08-07T07:26:16;0.90;;;0.80;;
52934;SDS011;38802;50.198;19.796;2023-08-07T07:28:44;1.10;;;0.80;;
52934;SDS011;38802;50.198;19.796;2023-08-07T07:31:12;1.10;;;0.90;;
52934;SDS011;38802;50.198;19.796;2023-08-07T07:33:40;1.20;;;1.00;;
52934;SDS011;38802;50.198;19.796;2023-08-07T07:36:15;2.20;;;0.70;;
52934;SDS011;38802;50.198;19.796;2023-08-07T07:38:47;6.10;;;1.00;;
52934;SDS011;38802;50.198;19.796;2023-08-07T07:41:16;0.90;;;0.70;;
52934;SDS011;38802;50.198;19.796;2023-08-07T07:43:44;2.10;;;0.80;;
52934;SDS011;38802;50.198;19.796;2023-08-07T07:46:12;1.20;;;1.10;;
52934;SDS011;38802;50.198;19.796;2023-08-07T07:48:40;1.00;;;1.00;;
52934;SDS011;38802;50.198;19.796;2023-08-07T07:51:08;2.70;;;1.00;;
52934;SDS011;38802;50.198;19.796;2023-08-07T07:53:36;0.90;;;0.90;;
52934;SDS011;38802;50.198;19.796;2023-08-07T07:56:04;1.10;;;0.80;;
52934;SDS011;38802;50.198;19.796;2023-08-07T07:58:32;0.80;;;0.80;;
52934;SDS011;38802;50.198;19.796;2023-08-07T08:01:00;0.70;;;0.60;;
52934;SDS011;38802;50.198;19.796;2023-08-07T08:03:28;0.80;;;0.80;;
52934;SDS011;38802;50.198;19.796;2023-08-07T08:05:56;0.60;;;0.60;;
52934;SDS011;38802;50.198;19.796;2023-08-07T08:08:24;0.80;;;0.80;;
52934;SDS011;38802;50.198;19.796;2023-08-07T08:10:55;2.80;;;1.00;;
52934;SDS011;38802;50.198;19.796;2023-08-07T08:13:23;1.20;;;0.60;;
52934;SDS011;38802;50.198;19.796;2023-08-07T08:15:53;0.60;;;0.60;;
52934;SDS011;38802;50.198;19.796;2023-08-07T08:18:21;0.70;;;0.70;;
52934;SDS011;38802;50.198;19.796;2023-08-07T08:20:53;7.30;;;0.90;;
52934;SDS011;38802;50.198;19.796;2023-08-07T08:23:22;1.40;;;0.70;;
52934;SDS011;38802;50.198;19.796;2023-08-07T08:25:50;1.40;;;0.60;;
52934;SDS011;38802;50.198;19.796;2023-08-07T08:28:18;0.70;;;0.70;;
52934;SDS011;38802;50.198;19.796;2023-08-07T08:30:46;0.60;;;0.60;;
52934;SDS011;38802;50.198;19.796;2023-08-07T08:33:15;0.80;;;0.70;;
52934;SDS011;38802;50.198;19.796;2023-08-07T08:35:45;0.60;;;0.60;;
52934;SDS011;38802;50.198;19.796;2023-08-07T08:38:13;1.20;;;1.10;;
52934;SDS011;38802;50.198;19.796;2023-08-07T08:40:41;0.70;;;0.70;;
52934;SDS011;38802;50.198;19.796;2023-08-07T08:43:10;3.40;;;0.70;;
52934;SDS011;38802;50.198;19.796;2023-08-07T08:45:40;0.60;;;0.60;;
52934;SDS011;38802;50.198;19.796;2023-08-07T08:48:09;2.10;;;0.80;;
52934;SDS011;38802;50.198;19.796;2023-08-07T08:50:49;1.90;;;0.60;;
52934;SDS011;38802;50.198;19.796;2023-08-07T08:53:18;0.80;;;0.60;;
52934;SDS011;38802;50.198;19.796;2023-08-07T08:55:49;0.80;;;0.80;;
52934;SDS011;38802;50.198;19.796;2023-08-07T08:58:18;1.20;;;0.70;;
52934;SDS011;38802;50.198;19.796;2023-08-07T09:00:48;2.10;;;0.60;;
52934;SDS011;38802;50.198;19.796;2023-08-07T09:03:20;0.80;;;0.70;;
52934;SDS011;38802;50.198;19.796;2023-08-07T09:05:49;0.80;;;0.80;;
52934;SDS011;38802;50.198;19.796;2023-08-07T09:08:20;0.80;;;0.80;;
52934;SDS011;38802;50.198;19.796;2023-08-07T09:10:50;0.60;;;0.60;;
52934;SDS011;38802;50.198;19.796;2023-08-07T09:13:20;0.90;;;0.60;;
52934;SDS011;38802;50.198;19.796;2023-08-07T09:15:56;0.80;;;0.80;;
52934;SDS011;38802;50.198;19.796;2023-08-07T09:18:27;0.90;;;0.60;;
52934;SDS011;38802;50.198;19.796;2023-08-07T09:20:56;1.70;;;0.50;;
52934;SDS011;38802;50.198;19.796;2023-08-07T09:23:25;3.60;;;0.50;;
52934;SDS011;38802;50.198;19.796;2023-08-07T09:26:00;0.80;;;0.40;;
52934;SDS011;38802;50.198;19.796;2023-08-07T09:28:29;0.60;;;0.50;;
52934;SDS011;38802;50.198;19.796;2023-08-07T09:30:58;0.40;;;0.40;;
52934;SDS011;38802;50.198;19.796;2023-08-07T09:33:27;1.00;;;0.50;;
52934;SDS011;38802;50.198;19.796;2023-08-07T09:35:58;0.50;;;0.50;;
52934;SDS011;38802;50.198;19.796;2023-08-07T09:38:28;0.50;;;0.50;;
52934;SDS011;38802;50.198;19.796;2023-08-07T09:41:01;0.60;;;0.50;;
52934;SDS011;38802;50.198;19.796;2023-08-07T09:43:35;0.50;;;0.50;;
52934;SDS011;38802;50.198;19.796;2023-08-07T09:46:04;3.10;;;0.40;;
52934;SDS011;38802;50.198;19.796;2023-08-07T09:48:42;1.70;;;0.60;;
52934;SDS011;38802;50.198;19.796;2023-08-07T09:51:11;0.40;;;0.40;;
52934;SDS011;38802;50.198;19.796;2023-08-07T09:53:39;1.30;;;0.70;;
52934;SDS011;38802;50.198;19.796;2023-08-07T09:56:08;0.70;;;0.70;;
52934;SDS011;38802;50.198;19.796;2023-08-07T09:58:37;0.90;;;0.80;;
52934;SDS011;38802;50.198;19.796;2023-08-07T10:01:05;0.60;;;0.60;;
52934;SDS011;38802;50.198;19.796;2023-08-07T10:03:36;0.80;;;0.80;;
52934;SDS011;38802;50.198;19.796;2023-08-07T10:06:04;0.70;;;0.70;;
52934;SDS011;38802;50.198;19.796;2023-08-07T10:08:34;0.80;;;0.80;;
52934;SDS011;38802;50.198;19.796;2023-08-07T10:11:03;1.00;;;1.00;;
52934;SDS011;38802;50.198;19.796;2023-08-07T10:13:34;1.90;;;1.00;;
52934;SDS011;38802;50.198;19.796;2023-08-07T10:16:07;5.00;;;1.00;;
52934;SDS011;38802;50.198;19.796;2023-08-07T10:18:35;4.50;;;1.20;;
52934;SDS011;38802;50.198;19.796;2023-08-07T10:21:05;1.10;;;1.00;;
52934;SDS011;38802;50.198;19.796;2023-08-07T10:23:34;0.80;;;0.80;;
52934;SDS011;38802;50.198;19.796;2023-08-07T10:26:04;2.20;;;1.00;;
52934;SDS011;38802;50.198;19.796;2023-08-07T10:28:37;0.90;;;0.90;;
52934;SDS011;38802;50.198;19.796;2023-08-07T10:31:08;2.80;;;0.90;;
52934;SDS011;38802;50.198;19.796;2023-08-07T10:33:38;0.80;;;0.70;;
52934;SDS011;38802;50.198;19.796;2023-08-07T10:36:09;0.70;;;0.70;;
52934;SDS011;38802;50.198;19.796;2023-08-07T10:38:38;0.70;;;0.70;;
52934;SDS011;38802;50.198;19.796;2023-08-07T10:43:37;1.90;;;0.80;;
52934;SDS011;38802;50.198;19.796;2023-08-07T10:46:08;0.80;;;0.80;;
52934;SDS011;38802;50.198;19.796;2023-08-07T10:48:47;0.80;;;0.70;;
52934;SDS011;38802;50.198;19.796;2023-08-07T10:51:21;1.70;;;0.90;;
52934;SDS011;38802;50.198;19.796;2023-08-07T10:53:57;4.10;;;0.90;;
52934;SDS011;38802;50.198;19.796;2023-08-07T10:56:33;0.80;;;0.80;;
52934;SDS011;38802;50.198;19.796;2023-08-07T10:59:09;0.70;;;0.70;;
52934;SDS011;38802;50.198;19.796;2023-08-07T11:04:15;1.00;;;0.80;;
52934;SDS011;38802;50.198;19.796;2023-08-07T11:06:46;0.90;;;0.80;;
52934;SDS011;38802;50.198;19.796;2023-08-07T11:09:15;1.60;;;0.70;;
52934;SDS011;38802;50.198;19.796;2023-08-07T11:11:44;1.40;;;0.60;;
52934;SDS011;38802;50.198;19.796;2023-08-07T11:14:17;0.80;;;0.80;;
52934;SDS011;38802;50.198;19.796;2023-08-07T11:16:47;0.60;;;0.60;;
52934;SDS011;38802;50.198;19.796;2023-08-07T11:19:17;1.10;;;0.70;;
52934;SDS011;38802;50.198;19.796;2023-08-07T11:21:47;0.80;;;0.70;;
52934;SDS011;38802;50.198;19.796;2023-08-07T11:24:15;1.10;;;0.70;;
52934;SDS011;38802;50.198;19.796;2023-08-07T11:26:46;1.30;;;0.80;;
52934;SDS011;38802;50.198;19.796;2023-08-07T11:29:17;0.70;;;0.70;;
52934;SDS011;38802;50.198;19.796;2023-08-07T11:31:46;1.00;;;0.70;;
52934;SDS011;38802;50.198;19.796;2023-08-07T11:34:16;1.50;;;0.70;;
52934;SDS011;38802;50.198;19.796;2023-08-07T11:36:46;1.10;;;0.80;;
52934;SDS011;38802;50.198;19.796;2023-08-07T11:39:15;0.90;;;0.80;;
52934;SDS011;38802;50.198;19.796;2023-08-07T11:41:45;1.80;;;1.10;;
52934;SDS011;38802;50.198;19.796;2023-08-07T11:44:13;1.20;;;1.00;;
52934;SDS011;38802;50.198;19.796;2023-08-07T11:46:41;1.40;;;1.10;;
52934;SDS011;38802;50.198;19.796;2023-08-07T11:49:10;2.90;;;1.10;;
52934;SDS011;38802;50.198;19.796;2023-08-07T11:51:39;2.00;;;1.40;;
52934;SDS011;38802;50.198;19.796;2023-08-07T11:54:13;3.50;;;1.60;;
52934;SDS011;38802;50.198;19.796;2023-08-07T11:56:42;2.00;;;1.70;;
52934;SDS011;38802;50.198;19.796;2023-08-07T11:59:10;1.90;;;1.40;;
52934;SDS011;38802;50.198;19.796;2023-08-07T12:01:39;2.00;;;1.40;;
52934;SDS011;38802;50.198;19.796;2023-08-07T12:04:08;1.90;;;1.60;;
52934;SDS011;38802;50.198;19.796;2023-08-07T12:06:37;3.00;;;1.70;;
52934;SDS011;38802;50.198;19.796;2023-08-07T12:09:12;4.70;;;1.50;;
52934;SDS011;38802;50.198;19.796;2023-08-07T12:11:41;1.70;;;1.40;;
52934;SDS011;38802;50.198;19.796;2023-08-07T12:14:09;3.00;;;1.70;;
52934;SDS011;38802;50.198;19.796;2023-08-07T12:16:44;2.50;;;1.70;;
52934;SDS011;38802;50.198;19.796;2023-08-07T12:19:16;1.50;;;1.40;;
52934;SDS011;38802;50.198;19.796;2023-08-07T12:21:44;2.30;;;1.20;;
52934;SDS011;38802;50.198;19.796;2023-08-07T12:24:12;2.60;;;1.30;;
52934;SDS011;38802;50.198;19.796;2023-08-07T12:26:40;3.00;;;1.30;;
52934;SDS011;38802;50.198;19.796;2023-08-07T12:29:09;2.60;;;1.10;;
52934;SDS011;38802;50.198;19.796;2023-08-07T12:31:36;11.50;;;1.50;;
52934;SDS011;38802;50.198;19.796;2023-08-07T12:34:06;2.80;;;2.60;;
52934;SDS011;38802;50.198;19.796;2023-08-07T12:36:39;5.20;;;1.90;;
52934;SDS011;38802;50.198;19.796;2023-08-07T12:39:07;1.30;;;1.00;;
52934;SDS011;38802;50.198;19.796;2023-08-07T12:41:35;2.30;;;1.40;;
52934;SDS011;38802;50.198;19.796;2023-08-07T12:44:06;4.90;;;1.40;;
52934;SDS011;38802;50.198;19.796;2023-08-07T12:46:34;1.90;;;1.70;;
52934;SDS011;38802;50.198;19.796;2023-08-07T12:49:08;2.40;;;1.60;;
52934;SDS011;38802;50.198;19.796;2023-08-07T12:51:37;1.40;;;1.30;;
52934;SDS011;38802;50.198;19.796;2023-08-07T12:54:05;2.90;;;1.80;;
52934;SDS011;38802;50.198;19.796;2023-08-07T12:56:33;3.00;;;1.80;;
52934;SDS011;38802;50.198;19.796;2023-08-07T12:59:01;3.70;;;1.50;;
52934;SDS011;38802;50.198;19.796;2023-08-07T13:01:30;2.40;;;1.80;;
52934;SDS011;38802;50.198;19.796;2023-08-07T13:03:59;4.20;;;1.90;;
52934;SDS011;38802;50.198;19.796;2023-08-07T13:06:27;3.30;;;2.80;;
52934;SDS011;38802;50.198;19.796;2023-08-07T13:08:55;5.50;;;3.40;;
52934;SDS011;38802;50.198;19.796;2023-08-07T13:11:23;6.60;;;3.80;;
52934;SDS011;38802;50.198;19.796;2023-08-07T13:13:52;7.40;;;5.50;;
52934;SDS011;38802;50.198;19.796;2023-08-07T13:16:20;12.90;;;9.50;;
52934;SDS011;38802;50.198;19.796;2023-08-07T13:18:48;14.20;;;7.70;;
52934;SDS011;38802;50.198;19.796;2023-08-07T13:21:16;7.40;;;6.60;;
52934;SDS011;38802;50.198;19.796;2023-08-07T13:23:45;6.50;;;5.20;;
52934;SDS011;38802;50.198;19.796;2023-08-07T13:26:13;8.00;;;3.50;;
52934;SDS011;38802;50.198;19.796;2023-08-07T13:28:43;4.20;;;3.20;;
52934;SDS011;38802;50.198;19.796;2023-08-07T13:31:11;6.20;;;3.10;;
52934;SDS011;38802;50.198;19.796;2023-08-07T13:33:42;3.80;;;2.80;;
52934;SDS011;38802;50.198;19.796;2023-08-07T13:36:10;4.00;;;2.30;;
52934;SDS011;38802;50.198;19.796;2023-08-07T13:38:38;7.60;;;2.40;;
52934;SDS011;38802;50.198;19.796;2023-08-07T13:41:06;4.00;;;2.20;;
52934;SDS011;38802;50.198;19.796;2023-08-07T13:43:35;3.90;;;2.20;;
52934;SDS011;38802;50.198;19.796;2023-08-07T13:46:03;3.20;;;2.00;;
52934;SDS011;38802;50.198;19.796;2023-08-07T13:48:31;3.40;;;2.30;;
52934;SDS011;38802;50.198;19.796;2023-08-07T13:51:01;5.80;;;2.90;;
52934;SDS011;38802;50.198;19.796;2023-08-07T13:53:32;4.00;;;2.10;;
52934;SDS011;38802;50.198;19.796;2023-08-07T13:56:00;4.30;;;2.00;;
52934;SDS011;38802;50.198;19.796;2023-08-07T13:58:28;2.70;;;2.50;;
52934;SDS011;38802;50.198;19.796;2023-08-07T14:00:57;3.80;;;2.60;;
52934;SDS011;38802;50.198;19.796;2023-08-07T14:03:25;2.40;;;2.20;;
52934;SDS011;38802;50.198;19.796;2023-08-07T14:05:53;3.50;;;2.50;;
52934;SDS011;38802;50.198;19.796;2023-08-07T14:08:21;5.00;;;2.90;;
52934;SDS011;38802;50.198;19.796;2023-08-07T14:10:50;2.80;;;2.20;;
52934;SDS011;38802;50.198;19.796;2023-08-07T14:13:18;3.10;;;2.80;;
52934;SDS011;38802;50.198;19.796;2023-08-07T14:15:46;4.80;;;2.60;;
52934;SDS011;38802;50.198;19.796;2023-08-07T14:18:14;3.20;;;2.80;;
52934;SDS011;38802;50.198;19.796;2023-08-07T14:20:43;4.00;;;2.70;;
52934;SDS011;38802;50.198;19.796;2023-08-07T14:23:29;3.30;;;3.00;;
52934;SDS011;38802;50.198;19.796;2023-08-07T14:26:18;3.90;;;3.00;;
52934;SDS011;38802;50.198;19.796;2023-08-07T14:28:48;3.10;;;2.80;;
52934;SDS011;38802;50.198;19.796;2023-08-07T14:31:16;7.00;;;3.50;;
52934;SDS011;38802;50.198;19.796;2023-08-07T14:33:44;3.20;;;2.90;;
52934;SDS011;38802;50.198;19.796;2023-08-07T14:36:13;3.10;;;2.80;;
52934;SDS011;38802;50.198;19.796;2023-08-07T14:38:42;4.90;;;3.20;;
52934;SDS011;38802;50.198;19.796;2023-08-07T14:41:10;4.00;;;3.10;;
52934;SDS011;38802;50.198;19.796;2023-08-07T14:43:38;5.40;;;2.90;;
52934;SDS011;38802;50.198;19.796;2023-08-07T14:46:06;4.70;;;3.40;;
52934;SDS011;38802;50.198;19.796;2023-08-07T14:48:35;3.50;;;3.20;;
52934;SDS011;38802;50.198;19.796;2023-08-07T14:51:03;3.80;;;2.80;;
52934;SDS011;38802;50.198;19.796;2023-08-07T14:53:32;6.00;;;3.50;;